sensor_id;sensor_type;location;lat;lon;timestamp;P1;durP1;ratioP1;P2;durP2;ratioP2
76357;SDS011;65185;21.060;105.826;2023-01-25T00:02:25;65.18;;;32.13;;
76357;SDS011;65185;21.060;105.826;2023-01-25T00:04:51;73.03;;;33.00;;
76357;SDS011;65185;21.060;105.826;2023-01-25T00:07:18;70.68;;;33.55;;
76357;SDS011;65185;21.060;105.826;2023-01-25T00:09:45;71.88;;;33.20;;
76357;SDS011;65185;21.060;105.826;2023-01-25T00:12:11;68.10;;;32.47;;
76357;SDS011;65185;21.060;105.826;2023-01-25T00:14:38;72.28;;;32.35;;
76357;SDS011;65185;21.060;105.826;2023-01-25T00:17:04;65.38;;;32.22;;
76357;SDS011;65185;21.060;105.826;2023-01-25T00:19:31;68.20;;;31.80;;
76357;SDS011;65185;21.060;105.826;2023-01-25T00:21:58;62.75;;;31.33;;
76357;SDS011;65185;21.060;105.826;2023-01-25T00:24:24;64.43;;;31.17;;
76357;SDS011;65185;21.060;105.826;2023-01-25T00:26:51;67.68;;;32.22;;
76357;SDS011;65185;21.060;105.826;2023-01-25T00:29:17;72.22;;;31.88;;
76357;SDS011;65185;21.060;105.826;2023-01-25T00:31:57;66.10;;;31.85;;
76357;SDS011;65185;21.060;105.826;2023-01-25T00:34:46;63.00;;;30.98;;
76357;SDS011;65185;21.060;105.826;2023-01-25T00:37:17;68.82;;;32.20;;
76357;SDS011;65185;21.060;105.826;2023-01-25T00:39:48;68.65;;;31.88;;
76357;SDS011;65185;21.060;105.826;2023-01-25T00:42:15;69.13;;;31.80;;
76357;SDS011;65185;21.060;105.826;2023-01-25T00:44:44;66.35;;;32.45;;
76357;SDS011;65185;21.060;105.826;2023-01-25T00:47:11;78.88;;;35.28;;
76357;SDS011;65185;21.060;105.826;2023-01-25T00:49:39;68.80;;;31.83;;
76357;SDS011;65185;21.060;105.826;2023-01-25T00:52:07;64.72;;;32.25;;
76357;SDS011;65185;21.060;105.826;2023-01-25T00:54:34;76.80;;;35.15;;
76357;SDS011;65185;21.060;105.826;2023-01-25T00:57:21;68.43;;;33.80;;
76357;SDS011;65185;21.060;105.826;2023-01-25T00:59:47;68.50;;;33.40;;
76357;SDS011;65185;21.060;105.826;2023-01-25T01:02:14;70.95;;;32.80;;
76357;SDS011;65185;21.060;105.826;2023-01-25T01:04:41;71.65;;;32.17;;
76357;SDS011;65185;21.060;105.826;2023-01-25T01:07:07;75.03;;;34.60;;
76357;SDS011;65185;21.060;105.826;2023-01-25T01:09:36;68.47;;;33.60;;
76357;SDS011;65185;21.060;105.826;2023-01-25T01:12:02;72.03;;;32.55;;
76357;SDS011;65185;21.060;105.826;2023-01-25T01:14:29;71.93;;;33.78;;
76357;SDS011;65185;21.060;105.826;2023-01-25T01:16:55;70.80;;;31.67;;
76357;SDS011;65185;21.060;105.826;2023-01-25T01:19:22;66.93;;;31.60;;
76357;SDS011;65185;21.060;105.826;2023-01-25T01:21:49;65.28;;;30.65;;
76357;SDS011;65185;21.060;105.826;2023-01-25T01:24:16;72.80;;;32.58;;
76357;SDS011;65185;21.060;105.826;2023-01-25T01:26:42;66.55;;;32.17;;
76357;SDS011;65185;21.060;105.826;2023-01-25T01:29:09;66.75;;;33.47;;
76357;SDS011;65185;21.060;105.826;2023-01-25T01:31:36;75.07;;;33.45;;
76357;SDS011;65185;21.060;105.826;2023-01-25T01:34:02;75.97;;;33.90;;
76357;SDS011;65185;21.060;105.826;2023-01-25T01:36:29;72.25;;;33.05;;
76357;SDS011;65185;21.060;105.826;2023-01-25T01:38:56;70.25;;;33.88;;
76357;SDS011;65185;21.060;105.826;2023-01-25T01:41:24;80.13;;;35.08;;
76357;SDS011;65185;21.060;105.826;2023-01-25T01:43:51;78.47;;;34.42;;
76357;SDS011;65185;21.060;105.826;2023-01-25T01:46:26;73.13;;;33.33;;
76357;SDS011;65185;21.060;105.826;2023-01-25T01:49:03;67.55;;;31.48;;
76357;SDS011;65185;21.060;105.826;2023-01-25T01:55:02;64.85;;;29.70;;
76357;SDS011;65185;21.060;105.826;2023-01-25T01:57:45;61.20;;;26.95;;
76357;SDS011;65185;21.060;105.826;2023-01-25T02:00:31;64.63;;;29.00;;
76357;SDS011;65185;21.060;105.826;2023-01-25T02:03:01;69.63;;;32.97;;
76357;SDS011;65185;21.060;105.826;2023-01-25T02:08:19;68.55;;;30.55;;
76357;SDS011;65185;21.060;105.826;2023-01-25T02:10:46;64.45;;;31.95;;
76357;SDS011;65185;21.060;105.826;2023-01-25T02:13:16;73.57;;;31.85;;
76357;SDS011;65185;21.060;105.826;2023-01-25T02:15:45;64.15;;;32.88;;
76357;SDS011;65185;21.060;105.826;2023-01-25T02:18:24;66.85;;;31.73;;
76357;SDS011;65185;21.060;105.826;2023-01-25T02:20:51;57.60;;;29.40;;
76357;SDS011;65185;21.060;105.826;2023-01-25T02:25:52;61.50;;;29.48;;
76357;SDS011;65185;21.060;105.826;2023-01-25T02:31:02;62.17;;;29.58;;
76357;SDS011;65185;21.060;105.826;2023-01-25T02:33:32;63.13;;;30.48;;
76357;SDS011;65185;21.060;105.826;2023-01-25T02:36:14;60.05;;;28.90;;
76357;SDS011;65185;21.060;105.826;2023-01-25T02:41:43;71.45;;;29.65;;
76357;SDS011;65185;21.060;105.826;2023-01-25T02:46:46;58.78;;;28.73;;
76357;SDS011;65185;21.060;105.826;2023-01-25T02:49:14;66.28;;;31.17;;
76357;SDS011;65185;21.060;105.826;2023-01-25T02:51:43;66.25;;;32.63;;
76357;SDS011;65185;21.060;105.826;2023-01-25T02:54:12;71.60;;;31.05;;
76357;SDS011;65185;21.060;105.826;2023-01-25T02:56:40;66.45;;;31.88;;
76357;SDS011;65185;21.060;105.826;2023-01-25T02:59:08;70.88;;;34.47;;
76357;SDS011;65185;21.060;105.826;2023-01-25T03:01:38;65.10;;;33.78;;
76357;SDS011;65185;21.060;105.826;2023-01-25T03:04:06;67.05;;;31.83;;
76357;SDS011;65185;21.060;105.826;2023-01-25T03:06:34;65.90;;;34.15;;
76357;SDS011;65185;21.060;105.826;2023-01-25T03:11:58;67.97;;;33.83;;
76357;SDS011;65185;21.060;105.826;2023-01-25T03:14:24;63.08;;;33.20;;
76357;SDS011;65185;21.060;105.826;2023-01-25T03:16:51;56.65;;;29.17;;
76357;SDS011;65185;21.060;105.826;2023-01-25T03:19:18;62.30;;;31.30;;
76357;SDS011;65185;21.060;105.826;2023-01-25T03:21:45;65.22;;;32.28;;
76357;SDS011;65185;21.060;105.826;2023-01-25T03:24:12;56.72;;;30.98;;
76357;SDS011;65185;21.060;105.826;2023-01-25T03:26:39;62.40;;;31.33;;
76357;SDS011;65185;21.060;105.826;2023-01-25T03:29:24;65.65;;;32.42;;
76357;SDS011;65185;21.060;105.826;2023-01-25T03:31:51;64.63;;;32.78;;
76357;SDS011;65185;21.060;105.826;2023-01-25T03:34:17;63.17;;;32.03;;
76357;SDS011;65185;21.060;105.826;2023-01-25T03:36:45;58.80;;;30.83;;
76357;SDS011;65185;21.060;105.826;2023-01-25T03:39:12;58.15;;;30.38;;
76357;SDS011;65185;21.060;105.826;2023-01-25T03:41:39;52.45;;;29.35;;
76357;SDS011;65185;21.060;105.826;2023-01-25T03:44:07;55.08;;;29.70;;
76357;SDS011;65185;21.060;105.826;2023-01-25T03:46:39;71.78;;;34.70;;
76357;SDS011;65185;21.060;105.826;2023-01-25T03:49:07;55.53;;;30.52;;
76357;SDS011;65185;21.060;105.826;2023-01-25T03:51:34;64.13;;;30.92;;
76357;SDS011;65185;21.060;105.826;2023-01-25T03:54:01;62.33;;;30.92;;
76357;SDS011;65185;21.060;105.826;2023-01-25T03:56:28;62.72;;;33.17;;
76357;SDS011;65185;21.060;105.826;2023-01-25T03:58:55;58.10;;;30.25;;
76357;SDS011;65185;21.060;105.826;2023-01-25T04:01:22;64.70;;;33.25;;
76357;SDS011;65185;21.060;105.826;2023-01-25T04:03:49;57.17;;;31.60;;
76357;SDS011;65185;21.060;105.826;2023-01-25T04:06:16;61.90;;;31.60;;
76357;SDS011;65185;21.060;105.826;2023-01-25T04:08:42;60.95;;;31.80;;
76357;SDS011;65185;21.060;105.826;2023-01-25T04:11:09;71.32;;;34.33;;
76357;SDS011;65185;21.060;105.826;2023-01-25T04:13:37;60.30;;;33.20;;
76357;SDS011;65185;21.060;105.826;2023-01-25T04:16:04;72.30;;;34.55;;
76357;SDS011;65185;21.060;105.826;2023-01-25T04:18:32;76.18;;;35.40;;
76357;SDS011;65185;21.060;105.826;2023-01-25T04:21:10;61.92;;;31.00;;
76357;SDS011;65185;21.060;105.826;2023-01-25T04:23:38;63.75;;;33.25;;
76357;SDS011;65185;21.060;105.826;2023-01-25T04:26:06;66.55;;;33.72;;
76357;SDS011;65185;21.060;105.826;2023-01-25T04:28:52;72.53;;;34.03;;
76357;SDS011;65185;21.060;105.826;2023-01-25T04:31:19;69.47;;;33.63;;
76357;SDS011;65185;21.060;105.826;2023-01-25T04:33:46;66.10;;;32.03;;
76357;SDS011;65185;21.060;105.826;2023-01-25T04:36:13;62.45;;;32.95;;
76357;SDS011;65185;21.060;105.826;2023-01-25T04:38:40;69.38;;;33.60;;
76357;SDS011;65185;21.060;105.826;2023-01-25T04:41:16;66.40;;;35.63;;
76357;SDS011;65185;21.060;105.826;2023-01-25T04:43:43;58.78;;;31.30;;
76357;SDS011;65185;21.060;105.826;2023-01-25T04:46:10;69.35;;;34.20;;
76357;SDS011;65185;21.060;105.826;2023-01-25T04:48:37;59.17;;;31.60;;
76357;SDS011;65185;21.060;105.826;2023-01-25T04:51:04;70.57;;;34.38;;
76357;SDS011;65185;21.060;105.826;2023-01-25T04:53:33;68.57;;;33.47;;
76357;SDS011;65185;21.060;105.826;2023-01-25T04:56:00;66.15;;;33.28;;
76357;SDS011;65185;21.060;105.826;2023-01-25T04:58:28;60.28;;;32.85;;
76357;SDS011;65185;21.060;105.826;2023-01-25T05:01:01;62.60;;;33.95;;
76357;SDS011;65185;21.060;105.826;2023-01-25T05:03:28;62.85;;;32.90;;
76357;SDS011;65185;21.060;105.826;2023-01-25T05:05:55;60.35;;;32.60;;
76357;SDS011;65185;21.060;105.826;2023-01-25T05:08:22;65.50;;;33.08;;
76357;SDS011;65185;21.060;105.826;2023-01-25T05:10:50;63.28;;;30.65;;
76357;SDS011;65185;21.060;105.826;2023-01-25T05:13:17;76.80;;;33.05;;
76357;SDS011;65185;21.060;105.826;2023-01-25T05:15:45;62.25;;;31.63;;
76357;SDS011;65185;21.060;105.826;2023-01-25T05:18:12;63.80;;;32.58;;
76357;SDS011;65185;21.060;105.826;2023-01-25T05:20:39;64.97;;;32.33;;
76357;SDS011;65185;21.060;105.826;2023-01-25T05:23:05;62.75;;;33.47;;
76357;SDS011;65185;21.060;105.826;2023-01-25T05:25:32;66.05;;;32.75;;
76357;SDS011;65185;21.060;105.826;2023-01-25T05:28:17;59.65;;;30.50;;
76357;SDS011;65185;21.060;105.826;2023-01-25T05:30:44;65.95;;;32.70;;
76357;SDS011;65185;21.060;105.826;2023-01-25T05:33:11;65.15;;;32.88;;
76357;SDS011;65185;21.060;105.826;2023-01-25T05:35:38;62.30;;;31.40;;
76357;SDS011;65185;21.060;105.826;2023-01-25T05:38:05;66.00;;;33.38;;
76357;SDS011;65185;21.060;105.826;2023-01-25T05:40:32;64.95;;;32.60;;
76357;SDS011;65185;21.060;105.826;2023-01-25T05:42:58;63.58;;;34.13;;
76357;SDS011;65185;21.060;105.826;2023-01-25T05:45:25;66.50;;;34.22;;
76357;SDS011;65185;21.060;105.826;2023-01-25T05:47:55;67.95;;;32.88;;
76357;SDS011;65185;21.060;105.826;2023-01-25T05:50:23;62.50;;;31.08;;
76357;SDS011;65185;21.060;105.826;2023-01-25T05:52:50;64.70;;;33.22;;
76357;SDS011;65185;21.060;105.826;2023-01-25T05:55:20;66.35;;;33.67;;
76357;SDS011;65185;21.060;105.826;2023-01-25T05:57:56;60.83;;;31.40;;
76357;SDS011;65185;21.060;105.826;2023-01-25T06:00:23;61.95;;;31.67;;
76357;SDS011;65185;21.060;105.826;2023-01-25T06:02:50;65.45;;;31.65;;
76357;SDS011;65185;21.060;105.826;2023-01-25T06:05:17;78.68;;;34.67;;
76357;SDS011;65185;21.060;105.826;2023-01-25T06:07:44;75.82;;;34.20;;
76357;SDS011;65185;21.060;105.826;2023-01-25T06:10:11;67.63;;;34.60;;
76357;SDS011;65185;21.060;105.826;2023-01-25T06:12:37;66.03;;;32.58;;
76357;SDS011;65185;21.060;105.826;2023-01-25T06:15:05;64.28;;;32.40;;
76357;SDS011;65185;21.060;105.826;2023-01-25T06:17:32;66.60;;;36.33;;
76357;SDS011;65185;21.060;105.826;2023-01-25T06:19:59;74.20;;;36.95;;
76357;SDS011;65185;21.060;105.826;2023-01-25T06:22:26;67.07;;;35.65;;
76357;SDS011;65185;21.060;105.826;2023-01-25T06:24:53;68.05;;;35.50;;
76357;SDS011;65185;21.060;105.826;2023-01-25T06:27:20;74.43;;;35.72;;
76357;SDS011;65185;21.060;105.826;2023-01-25T06:29:47;69.53;;;35.95;;
76357;SDS011;65185;21.060;105.826;2023-01-25T06:32:14;61.28;;;32.88;;
76357;SDS011;65185;21.060;105.826;2023-01-25T06:34:41;72.65;;;35.95;;
76357;SDS011;65185;21.060;105.826;2023-01-25T06:37:08;69.00;;;35.38;;
76357;SDS011;65185;21.060;105.826;2023-01-25T06:39:35;67.53;;;33.78;;
76357;SDS011;65185;21.060;105.826;2023-01-25T06:42:02;65.88;;;33.78;;
76357;SDS011;65185;21.060;105.826;2023-01-25T06:44:42;62.65;;;32.85;;
76357;SDS011;65185;21.060;105.826;2023-01-25T06:47:09;72.25;;;35.28;;
76357;SDS011;65185;21.060;105.826;2023-01-25T06:49:37;65.28;;;34.20;;
76357;SDS011;65185;21.060;105.826;2023-01-25T06:52:04;70.50;;;34.28;;
76357;SDS011;65185;21.060;105.826;2023-01-25T06:54:30;66.88;;;33.83;;
76357;SDS011;65185;21.060;105.826;2023-01-25T06:56:57;71.15;;;32.63;;
76357;SDS011;65185;21.060;105.826;2023-01-25T06:59:24;65.38;;;34.60;;
76357;SDS011;65185;21.060;105.826;2023-01-25T07:01:51;71.72;;;35.47;;
76357;SDS011;65185;21.060;105.826;2023-01-25T07:04:18;61.17;;;31.95;;
76357;SDS011;65185;21.060;105.826;2023-01-25T07:06:45;62.80;;;32.67;;
76357;SDS011;65185;21.060;105.826;2023-01-25T07:09:15;64.32;;;32.60;;
76357;SDS011;65185;21.060;105.826;2023-01-25T07:11:48;63.63;;;33.35;;
76357;SDS011;65185;21.060;105.826;2023-01-25T07:14:15;60.60;;;31.70;;
76357;SDS011;65185;21.060;105.826;2023-01-25T07:16:42;66.13;;;32.78;;
76357;SDS011;65185;21.060;105.826;2023-01-25T07:19:10;57.55;;;30.83;;
76357;SDS011;65185;21.060;105.826;2023-01-25T07:21:40;57.70;;;30.77;;
76357;SDS011;65185;21.060;105.826;2023-01-25T07:24:09;60.67;;;30.50;;
76357;SDS011;65185;21.060;105.826;2023-01-25T07:26:39;56.70;;;30.98;;
76357;SDS011;65185;21.060;105.826;2023-01-25T07:29:07;66.20;;;32.70;;
76357;SDS011;65185;21.060;105.826;2023-01-25T07:31:45;59.40;;;30.48;;
76357;SDS011;65185;21.060;105.826;2023-01-25T07:34:12;71.75;;;33.10;;
76357;SDS011;65185;21.060;105.826;2023-01-25T07:36:40;70.90;;;32.58;;
76357;SDS011;65185;21.060;105.826;2023-01-25T07:39:11;61.65;;;32.75;;
76357;SDS011;65185;21.060;105.826;2023-01-25T07:41:38;56.00;;;30.60;;
76357;SDS011;65185;21.060;105.826;2023-01-25T07:44:05;67.55;;;30.30;;
76357;SDS011;65185;21.060;105.826;2023-01-25T07:46:32;60.47;;;29.30;;
76357;SDS011;65185;21.060;105.826;2023-01-25T07:48:59;50.38;;;28.00;;
76357;SDS011;65185;21.060;105.826;2023-01-25T07:51:26;60.03;;;27.65;;
76357;SDS011;65185;21.060;105.826;2023-01-25T07:53:56;58.25;;;29.35;;
76357;SDS011;65185;21.060;105.826;2023-01-25T07:56:25;57.90;;;30.40;;
76357;SDS011;65185;21.060;105.826;2023-01-25T07:59:05;57.58;;;28.10;;
76357;SDS011;65185;21.060;105.826;2023-01-25T08:01:35;57.55;;;28.70;;
76357;SDS011;65185;21.060;105.826;2023-01-25T08:04:03;63.00;;;32.83;;
76357;SDS011;65185;21.060;105.826;2023-01-25T08:06:31;57.03;;;29.45;;
76357;SDS011;65185;21.060;105.826;2023-01-25T08:09:01;55.00;;;26.20;;
76357;SDS011;65185;21.060;105.826;2023-01-25T08:11:30;51.65;;;26.13;;
76357;SDS011;65185;21.060;105.826;2023-01-25T08:13:58;57.58;;;29.42;;
76357;SDS011;65185;21.060;105.826;2023-01-25T08:16:27;59.72;;;28.42;;
76357;SDS011;65185;21.060;105.826;2023-01-25T08:18:56;63.60;;;31.40;;
76357;SDS011;65185;21.060;105.826;2023-01-25T08:23:57;53.63;;;28.75;;
76357;SDS011;65185;21.060;105.826;2023-01-25T08:26:26;56.30;;;29.92;;
76357;SDS011;65185;21.060;105.826;2023-01-25T08:28:53;66.95;;;33.15;;
76357;SDS011;65185;21.060;105.826;2023-01-25T08:31:22;63.92;;;30.75;;
76357;SDS011;65185;21.060;105.826;2023-01-25T08:33:51;61.15;;;31.10;;
76357;SDS011;65185;21.060;105.826;2023-01-25T08:36:18;65.03;;;33.95;;
76357;SDS011;65185;21.060;105.826;2023-01-25T08:38:46;63.05;;;32.50;;
76357;SDS011;65185;21.060;105.826;2023-01-25T08:41:14;60.13;;;29.40;;
76357;SDS011;65185;21.060;105.826;2023-01-25T08:46:10;55.97;;;30.70;;
76357;SDS011;65185;21.060;105.826;2023-01-25T08:48:37;65.07;;;33.17;;
76357;SDS011;65185;21.060;105.826;2023-01-25T08:51:06;68.15;;;33.20;;
76357;SDS011;65185;21.060;105.826;2023-01-25T08:53:36;67.72;;;32.40;;
76357;SDS011;65185;21.060;105.826;2023-01-25T08:56:06;65.45;;;31.85;;
76357;SDS011;65185;21.060;105.826;2023-01-25T08:58:36;63.35;;;33.03;;
76357;SDS011;65185;21.060;105.826;2023-01-25T09:01:05;69.57;;;32.97;;
76357;SDS011;65185;21.060;105.826;2023-01-25T09:03:34;64.55;;;33.33;;
76357;SDS011;65185;21.060;105.826;2023-01-25T09:06:02;70.82;;;34.60;;
76357;SDS011;65185;21.060;105.826;2023-01-25T09:08:30;62.92;;;33.20;;
76357;SDS011;65185;21.060;105.826;2023-01-25T09:11:00;69.57;;;35.25;;
76357;SDS011;65185;21.060;105.826;2023-01-25T09:13:28;72.07;;;36.33;;
76357;SDS011;65185;21.060;105.826;2023-01-25T09:15:59;66.07;;;34.45;;
76357;SDS011;65185;21.060;105.826;2023-01-25T09:18:31;60.75;;;34.15;;
76357;SDS011;65185;21.060;105.826;2023-01-25T09:20:59;68.72;;;37.30;;
76357;SDS011;65185;21.060;105.826;2023-01-25T09:23:30;73.65;;;37.20;;
76357;SDS011;65185;21.060;105.826;2023-01-25T09:25:57;70.07;;;37.28;;
76357;SDS011;65185;21.060;105.826;2023-01-25T09:28:29;65.68;;;36.40;;
76357;SDS011;65185;21.060;105.826;2023-01-25T09:30:57;71.68;;;37.97;;
76357;SDS011;65185;21.060;105.826;2023-01-25T09:33:27;76.22;;;40.10;;
76357;SDS011;65185;21.060;105.826;2023-01-25T09:35:54;81.47;;;43.08;;
76357;SDS011;65185;21.060;105.826;2023-01-25T09:38:22;74.35;;;39.25;;
76357;SDS011;65185;21.060;105.826;2023-01-25T09:46:24;79.43;;;39.20;;
76357;SDS011;65185;21.060;105.826;2023-01-25T09:49:40;72.97;;;37.53;;
76357;SDS011;65185;21.060;105.826;2023-01-25T09:55:09;75.30;;;38.97;;
76357;SDS011;65185;21.060;105.826;2023-01-25T09:57:39;83.38;;;40.75;;
76357;SDS011;65185;21.060;105.826;2023-01-25T10:05:48;76.00;;;40.88;;
76357;SDS011;65185;21.060;105.826;2023-01-25T10:11:19;84.53;;;43.00;;
76357;SDS011;65185;21.060;105.826;2023-01-25T10:13:52;75.95;;;38.67;;
76357;SDS011;65185;21.060;105.826;2023-01-25T10:16:24;84.47;;;42.40;;
76357;SDS011;65185;21.060;105.826;2023-01-25T10:24:01;72.15;;;39.10;;
76357;SDS011;65185;21.060;105.826;2023-01-25T10:26:37;72.15;;;37.92;;
76357;SDS011;65185;21.060;105.826;2023-01-25T10:29:18;74.28;;;38.42;;
76357;SDS011;65185;21.060;105.826;2023-01-25T10:32:08;80.47;;;39.15;;
76357;SDS011;65185;21.060;105.826;2023-01-25T10:35:14;72.90;;;36.35;;
76357;SDS011;65185;21.060;105.826;2023-01-25T10:37:42;69.97;;;37.95;;
76357;SDS011;65185;21.060;105.826;2023-01-25T10:40:18;73.63;;;35.60;;
76357;SDS011;65185;21.060;105.826;2023-01-25T10:42:59;62.42;;;34.08;;
76357;SDS011;65185;21.060;105.826;2023-01-25T10:45:31;59.28;;;33.88;;
76357;SDS011;65185;21.060;105.826;2023-01-25T10:48:03;68.70;;;34.22;;
76357;SDS011;65185;21.060;105.826;2023-01-25T10:53:21;63.63;;;32.60;;
76357;SDS011;65185;21.060;105.826;2023-01-25T10:58:48;62.70;;;33.08;;
76357;SDS011;65185;21.060;105.826;2023-01-25T11:01:31;71.60;;;36.08;;
76357;SDS011;65185;21.060;105.826;2023-01-25T11:04:01;70.72;;;36.25;;
76357;SDS011;65185;21.060;105.826;2023-01-25T11:06:47;70.35;;;35.38;;
76357;SDS011;65185;21.060;105.826;2023-01-25T11:11:57;76.63;;;37.15;;
76357;SDS011;65185;21.060;105.826;2023-01-25T11:14:26;66.53;;;34.53;;
76357;SDS011;65185;21.060;105.826;2023-01-25T11:16:56;76.57;;;39.13;;
76357;SDS011;65185;21.060;105.826;2023-01-25T11:24:27;72.03;;;35.75;;
76357;SDS011;65185;21.060;105.826;2023-01-25T11:29:43;68.93;;;37.58;;
76357;SDS011;65185;21.060;105.826;2023-01-25T11:32:18;76.43;;;38.65;;
76357;SDS011;65185;21.060;105.826;2023-01-25T11:34:48;75.70;;;37.88;;
76357;SDS011;65185;21.060;105.826;2023-01-25T11:37:21;70.18;;;36.50;;
76357;SDS011;65185;21.060;105.826;2023-01-25T11:51:05;73.30;;;37.75;;
76357;SDS011;65185;21.060;105.826;2023-01-25T11:56:35;88.82;;;42.58;;
76357;SDS011;65185;21.060;105.826;2023-01-25T12:07:30;87.43;;;41.63;;
76357;SDS011;65185;21.060;105.826;2023-01-25T12:13:05;82.90;;;39.03;;
76357;SDS011;65185;21.060;105.826;2023-01-25T12:16:13;88.85;;;45.95;;
76357;SDS011;65185;21.060;105.826;2023-01-25T12:29:43;85.10;;;40.00;;
76357;SDS011;65185;21.060;105.826;2023-01-25T12:32:17;82.90;;;40.58;;
76357;SDS011;65185;21.060;105.826;2023-01-25T12:35:00;83.25;;;39.92;;
76357;SDS011;65185;21.060;105.826;2023-01-25T12:37:48;76.18;;;39.90;;
76357;SDS011;65185;21.060;105.826;2023-01-25T12:43:12;77.47;;;38.78;;
76357;SDS011;65185;21.060;105.826;2023-01-25T12:45:46;85.75;;;39.85;;
76357;SDS011;65185;21.060;105.826;2023-01-25T12:48:22;77.57;;;38.92;;
76357;SDS011;65185;21.060;105.826;2023-01-25T12:50:57;81.13;;;39.83;;
76357;SDS011;65185;21.060;105.826;2023-01-25T12:59:27;83.28;;;41.17;;
76357;SDS011;65185;21.060;105.826;2023-01-25T13:02:19;84.93;;;39.90;;
76357;SDS011;65185;21.060;105.826;2023-01-25T13:08:01;91.95;;;45.53;;
76357;SDS011;65185;21.060;105.826;2023-01-25T13:10:44;83.32;;;40.97;;
76357;SDS011;65185;21.060;105.826;2023-01-25T13:13:25;80.78;;;40.95;;
76357;SDS011;65185;21.060;105.826;2023-01-25T13:15:53;84.72;;;40.70;;
76357;SDS011;65185;21.060;105.826;2023-01-25T13:20:57;80.38;;;41.53;;
76357;SDS011;65185;21.060;105.826;2023-01-25T13:23:32;75.93;;;39.45;;
76357;SDS011;65185;21.060;105.826;2023-01-25T13:28:52;77.57;;;42.03;;
76357;SDS011;65185;21.060;105.826;2023-01-25T13:41:58;74.35;;;40.03;;
76357;SDS011;65185;21.060;105.826;2023-01-25T13:44:30;86.07;;;42.08;;
76357;SDS011;65185;21.060;105.826;2023-01-25T13:47:01;81.38;;;39.35;;
76357;SDS011;65185;21.060;105.826;2023-01-25T13:49:33;80.88;;;39.63;;
76357;SDS011;65185;21.060;105.826;2023-01-25T13:52:02;83.07;;;41.90;;
76357;SDS011;65185;21.060;105.826;2023-01-25T13:54:29;80.40;;;39.22;;
76357;SDS011;65185;21.060;105.826;2023-01-25T13:57:04;76.70;;;39.97;;
76357;SDS011;65185;21.060;105.826;2023-01-25T13:59:34;87.30;;;41.03;;
76357;SDS011;65185;21.060;105.826;2023-01-25T14:02:01;71.88;;;37.65;;
76357;SDS011;65185;21.060;105.826;2023-01-25T14:04:29;80.78;;;40.05;;
76357;SDS011;65185;21.060;105.826;2023-01-25T14:06:56;83.18;;;40.70;;
76357;SDS011;65185;21.060;105.826;2023-01-25T14:09:26;79.38;;;39.83;;
76357;SDS011;65185;21.060;105.826;2023-01-25T14:12:03;78.63;;;39.35;;
76357;SDS011;65185;21.060;105.826;2023-01-25T14:14:47;74.63;;;37.65;;
76357;SDS011;65185;21.060;105.826;2023-01-25T14:17:18;81.47;;;38.75;;
76357;SDS011;65185;21.060;105.826;2023-01-25T14:19:52;77.60;;;38.45;;
76357;SDS011;65185;21.060;105.826;2023-01-25T14:22:29;77.50;;;39.28;;
76357;SDS011;65185;21.060;105.826;2023-01-25T14:27:43;80.18;;;38.65;;
76357;SDS011;65185;21.060;105.826;2023-01-25T14:33:02;74.28;;;38.63;;
76357;SDS011;65185;21.060;105.826;2023-01-25T14:35:51;80.68;;;39.63;;
76357;SDS011;65185;21.060;105.826;2023-01-25T14:38:35;73.30;;;37.75;;
76357;SDS011;65185;21.060;105.826;2023-01-25T14:41:11;79.05;;;39.38;;
76357;SDS011;65185;21.060;105.826;2023-01-25T14:43:44;76.15;;;38.97;;
76357;SDS011;65185;21.060;105.826;2023-01-25T14:46:24;80.05;;;39.17;;
76357;SDS011;65185;21.060;105.826;2023-01-25T14:54:33;76.78;;;37.78;;
76357;SDS011;65185;21.060;105.826;2023-01-25T14:57:03;76.55;;;37.97;;
76357;SDS011;65185;21.060;105.826;2023-01-25T14:59:33;75.20;;;36.95;;
76357;SDS011;65185;21.060;105.826;2023-01-25T15:02:02;74.05;;;36.40;;
76357;SDS011;65185;21.060;105.826;2023-01-25T15:04:30;77.10;;;39.22;;
76357;SDS011;65185;21.060;105.826;2023-01-25T15:06:57;71.82;;;37.78;;
76357;SDS011;65185;21.060;105.826;2023-01-25T15:09:37;71.20;;;37.45;;
76357;SDS011;65185;21.060;105.826;2023-01-25T15:14:49;73.85;;;37.22;;
76357;SDS011;65185;21.060;105.826;2023-01-25T15:17:40;72.47;;;36.47;;
76357;SDS011;65185;21.060;105.826;2023-01-25T15:20:28;75.05;;;37.60;;
76357;SDS011;65185;21.060;105.826;2023-01-25T15:23:08;74.25;;;37.00;;
76357;SDS011;65185;21.060;105.826;2023-01-25T15:25:52;72.78;;;37.08;;
76357;SDS011;65185;21.060;105.826;2023-01-25T15:28:24;73.60;;;38.38;;
76357;SDS011;65185;21.060;105.826;2023-01-25T15:33:23;73.75;;;36.63;;
76357;SDS011;65185;21.060;105.826;2023-01-25T15:35:52;71.43;;;36.65;;
76357;SDS011;65185;21.060;105.826;2023-01-25T15:38:19;75.20;;;36.50;;
76357;SDS011;65185;21.060;105.826;2023-01-25T15:40:47;74.90;;;37.17;;
76357;SDS011;65185;21.060;105.826;2023-01-25T15:43:14;81.18;;;38.08;;
76357;SDS011;65185;21.060;105.826;2023-01-25T15:45:43;71.18;;;38.83;;
76357;SDS011;65185;21.060;105.826;2023-01-25T15:48:14;78.78;;;37.75;;
76357;SDS011;65185;21.060;105.826;2023-01-25T15:53:15;74.18;;;36.67;;
76357;SDS011;65185;21.060;105.826;2023-01-25T15:55:47;69.20;;;39.25;;
76357;SDS011;65185;21.060;105.826;2023-01-25T15:58:26;68.78;;;36.78;;
76357;SDS011;65185;21.060;105.826;2023-01-25T16:00:56;74.22;;;37.10;;
76357;SDS011;65185;21.060;105.826;2023-01-25T16:03:25;70.93;;;35.92;;
76357;SDS011;65185;21.060;105.826;2023-01-25T16:05:58;70.97;;;37.78;;
76357;SDS011;65185;21.060;105.826;2023-01-25T16:08:45;70.28;;;35.60;;
76357;SDS011;65185;21.060;105.826;2023-01-25T16:11:12;70.93;;;37.65;;
76357;SDS011;65185;21.060;105.826;2023-01-25T16:13:39;68.10;;;36.95;;
76357;SDS011;65185;21.060;105.826;2023-01-25T16:16:19;73.78;;;35.72;;
76357;SDS011;65185;21.060;105.826;2023-01-25T16:18:47;73.28;;;38.38;;
76357;SDS011;65185;21.060;105.826;2023-01-25T16:21:15;69.22;;;36.30;;
76357;SDS011;65185;21.060;105.826;2023-01-25T16:23:42;72.85;;;37.50;;
76357;SDS011;65185;21.060;105.826;2023-01-25T16:26:25;75.43;;;38.17;;
76357;SDS011;65185;21.060;105.826;2023-01-25T16:28:53;67.88;;;35.92;;
76357;SDS011;65185;21.060;105.826;2023-01-25T16:31:21;60.72;;;34.13;;
76357;SDS011;65185;21.060;105.826;2023-01-25T16:33:48;70.63;;;35.33;;
76357;SDS011;65185;21.060;105.826;2023-01-25T16:38:43;72.55;;;36.38;;
76357;SDS011;65185;21.060;105.826;2023-01-25T16:41:10;72.82;;;36.90;;
76357;SDS011;65185;21.060;105.826;2023-01-25T16:43:41;68.18;;;36.70;;
76357;SDS011;65185;21.060;105.826;2023-01-25T16:48:46;72.40;;;36.50;;